Time;durP1;ratioP1;P1;durP2;ratioP2;P2;SDS_P1;SDS_P2;PMS_P1;PMS_P2;Temp;Humidity;BMP_temperature;BMP_pressure;BME280_temperature;BME280_humidity;BME280_pressure;Samples;Min_cycle;Max_cycle;Signal;HPM_P1;HPM_P2
2022/01/14 00:00:44;;;;;;;;;41.75;40.00;;;;;5.49;67.79;102957.25;5094396;27;45583;-50
2022/01/14 00:03:12;;;;;;;;;45.25;41.50;;;;;5.51;67.64;102957.31;5096641;27;45611;-50
2022/01/14 00:05:37;;;;;;;;;44.75;41.50;;;;;5.50;67.91;102951.19;5096276;27;45378;-46
2022/01/14 00:08:04;;;;;;;;;46.75;42.75;;;;;5.51;67.76;102949.47;5094733;27;45390;-46
2022/01/14 00:10:31;;;;;;;;;50.00;42.00;;;;;5.50;67.59;102948.56;5096682;27;45339;-50
2022/01/14 00:13:06;;;;;;;;;45.25;41.00;;;;;5.53;67.49;102953.88;5096333;27;45425;-49
2022/01/14 00:15:34;;;;;;;;;46.00;40.00;;;;;5.51;67.55;102950.34;5094918;27;45511;-47
2022/01/14 00:18:01;;;;;;;;;48.25;43.00;;;;;5.53;67.78;102947.75;5094630;27;45544;-46
2022/01/14 00:20:26;;;;;;;;;40.50;38.50;;;;;5.42;67.80;102924.00;5096833;27;45486;-50
2022/01/14 00:22:52;;;;;;;;;56.00;43.00;;;;;5.47;67.74;102931.97;5096066;27;46207;-49
2022/01/14 00:33:27;;;;;;;;;48.25;42.00;;;;;5.47;67.88;102938.06;5075552;28;45748;-48
2022/01/14 00:35:52;;;;;;;;;48.75;42.00;;;;;5.50;67.70;102939.84;5075358;27;45514;-47
2022/01/14 00:38:18;;;;;;;;;44.25;38.75;;;;;5.49;67.81;102935.50;5075591;27;45647;-46
2022/01/14 00:40:44;;;;;;;;;51.75;43.75;;;;;5.49;67.08;102940.72;5075442;28;45377;-50
2022/01/14 00:43:10;;;;;;;;;46.75;39.25;;;;;5.49;67.82;102938.97;5090912;27;45948;-47
2022/01/14 00:45:36;;;;;;;;;43.50;39.25;;;;;5.48;67.67;102931.09;5075629;27;45461;-48
2022/01/14 00:48:04;;;;;;;;;45.00;39.25;;;;;5.51;67.60;102937.28;5089778;27;45482;-48
2022/01/14 00:50:30;;;;;;;;;37.25;35.25;;;;;5.49;67.91;102925.06;5087449;27;45610;-48
2022/01/14 00:52:56;;;;;;;;;43.00;39.50;;;;;5.50;67.44;102930.28;5075391;28;46184;-50
2022/01/14 00:55:43;;;;;;;;;45.00;39.25;;;;;5.51;67.52;102934.69;5075431;27;45471;-46
2022/01/14 01:00:50;;;;;;;;;44.75;41.00;;;;;5.47;67.63;102943.28;5090530;27;45516;-47
2022/01/14 01:03:15;;;;;;;;;49.00;39.25;;;;;5.46;67.50;102941.53;5095580;27;45421;-51
2022/01/14 01:05:41;;;;;;;;;41.00;39.25;;;;;5.47;67.77;102930.22;5095643;27;45428;-46
2022/01/14 01:08:10;;;;;;;;;47.00;40.75;;;;;5.44;67.68;102942.34;5093997;27;46141;-46
2022/01/14 01:10:39;;;;;;;;;35.75;32.50;;;;;5.41;67.73;102935.31;5095729;27;45476;-49
2022/01/14 01:13:16;;;;;;;;;39.75;38.75;;;;;5.38;67.46;102929.16;5095352;27;45478;-46
2022/01/14 01:15:41;;;;;;;;;41.75;39.25;;;;;5.40;67.71;102938.78;5085153;27;45489;-50
2022/01/14 01:18:07;;;;;;;;;35.00;33.75;;;;;5.43;67.81;102937.97;5073835;28;45460;-50
2022/01/14 01:20:32;;;;;;;;;44.50;40.00;;;;;5.44;67.51;102943.22;5075353;27;45478;-49
2022/01/14 01:22:57;;;;;;;;;39.50;38.25;;;;;5.44;67.62;102942.34;5074999;27;45445;-50
2022/01/14 01:25:27;;;;;;;;;40.00;31.75;;;;;5.42;67.29;102937.06;5075057;27;45441;-48
2022/01/14 01:27:54;;;;;;;;;39.00;35.50;;;;;5.44;67.71;102938.00;5075329;27;45379;-46
2022/01/14 01:32:59;;;;;;;;;44.00;41.50;;;;;5.39;67.47;102934.38;5095577;27;46085;-48
2022/01/14 01:35:25;;;;;;;;;42.75;36.25;;;;;5.32;67.93;102925.53;5094943;27;45445;-51
2022/01/14 01:37:51;;;;;;;;;39.75;37.75;;;;;5.38;67.86;102931.75;5095304;27;45347;-49
2022/01/14 01:40:19;;;;;;;;;45.50;42.00;;;;;5.42;67.70;102930.97;5095700;27;45464;-47
2022/01/14 01:42:45;;;;;;;;;47.00;41.00;;;;;5.42;67.61;102926.63;5098967;27;46141;-48
2022/01/14 01:45:14;;;;;;;;;42.25;35.75;;;;;5.40;67.63;102928.34;5097819;27;45457;-47
2022/01/14 01:47:41;;;;;;;;;52.50;43.25;;;;;5.45;67.43;102929.31;5099065;27;45383;-49
2022/01/14 01:50:13;;;;;;;;;53.50;42.00;;;;;5.43;67.57;102933.63;5098828;27;45491;-47
2022/01/14 01:52:39;;;;;;;;;43.25;37.25;;;;;5.38;67.95;102923.94;5098776;27;45390;-48
2022/01/14 01:55:05;;;;;;;;;47.75;40.25;;;;;5.39;67.77;102934.38;5098885;27;45392;-48
2022/01/14 01:57:31;;;;;;;;;50.25;42.00;;;;;5.41;67.64;102929.22;5096008;27;45359;-49
2022/01/14 01:59:57;;;;;;;;;46.75;41.25;;;;;5.40;67.74;102930.03;5098742;27;45346;-49
2022/01/14 02:02:22;;;;;;;;;50.25;44.00;;;;;5.41;66.94;102927.47;5098890;27;45352;-48
2022/01/14 02:04:47;;;;;;;;;42.75;39.75;;;;;5.43;67.07;102925.81;5098657;27;45536;-48
2022/01/14 02:07:13;;;;;;;;;51.00;40.25;;;;;5.38;67.37;102916.97;5098649;27;45352;-48
2022/01/14 02:09:38;;;;;;;;;42.50;40.75;;;;;5.29;67.85;102906.31;5092448;27;45400;-47
2022/01/14 02:12:09;;;;;;;;;42.50;38.00;;;;;5.31;67.61;102908.09;5076878;27;45592;-48
2022/01/14 02:17:27;;;;;;;;;43.50;40.00;;;;;5.29;67.73;102912.44;5078533;28;45453;-48
2022/01/14 02:22:50;;;;;;;;;51.00;42.00;;;;;5.26;68.31;102906.25;5076743;27;45494;-48
2022/01/14 02:25:23;;;;;;;;;47.25;41.25;;;;;5.23;67.59;102911.38;5091586;27;45669;-48
2022/01/14 02:27:49;;;;;;;;;45.50;40.25;;;;;5.26;68.22;102908.84;5098730;27;45454;-51
2022/01/14 02:30:14;;;;;;;;;44.00;37.50;;;;;5.31;68.41;102913.31;5098088;27;45441;-47
2022/01/14 02:32:40;;;;;;;;;40.75;38.50;;;;;5.28;68.06;102915.00;5098311;27;45532;-47
2022/01/14 02:35:07;;;;;;;;;42.25;39.75;;;;;5.18;68.10;102899.97;5098175;27;45499;-47
2022/01/14 02:37:32;;;;;;;;;39.25;36.75;;;;;5.24;68.03;102894.91;5098747;27;45354;-47
2022/01/14 02:39:58;;;;;;;;;45.75;41.50;;;;;5.24;67.68;102890.56;5096132;27;45406;-46
2022/01/14 02:42:23;;;;;;;;;42.00;38.50;;;;;5.24;67.53;102881.88;5098394;27;46030;-48
2022/01/14 02:44:49;;;;;;;;;39.50;37.75;;;;;5.21;67.96;102873.94;5098298;27;45346;-46
2022/01/14 02:47:17;;;;;;;;;41.00;34.50;;;;;5.26;68.03;102877.53;5094101;27;45397;-47
2022/01/14 02:49:43;;;;;;;;;43.75;37.25;;;;;5.25;68.23;102878.41;5077736;27;45486;-47
2022/01/14 02:52:09;;;;;;;;;46.50;37.25;;;;;5.25;68.21;102874.06;5077126;27;45462;-49
2022/01/14 02:54:41;;;;;;;;;37.25;37.25;;;;;5.26;68.07;102883.63;5078596;27;45596;-48
2022/01/14 02:57:09;;;;;;;;;40.25;39.00;;;;;5.26;67.85;102883.63;5077795;27;45413;-51
2022/01/14 02:59:37;;;;;;;;;37.00;34.75;;;;;5.31;68.16;102878.53;5076462;27;45415;-47
2022/01/14 03:02:03;;;;;;;;;44.25;37.75;;;;;5.30;67.66;102872.44;5077194;27;46145;-47
2022/01/14 03:04:32;;;;;;;;;36.75;36.75;;;;;5.31;67.86;102868.97;5085724;27;45390;-47
2022/01/14 03:06:58;;;;;;;;;41.25;36.00;;;;;5.32;67.76;102867.28;5097837;27;45392;-46
2022/01/14 03:09:23;;;;;;;;;36.50;34.00;;;;;5.29;67.87;102860.25;5097961;27;45471;-46
2022/01/14 03:11:55;;;;;;;;;40.50;38.75;;;;;5.27;68.27;102854.09;5097575;27;46157;-46
2022/01/14 03:14:24;;;;;;;;;45.00;37.75;;;;;5.31;67.94;102858.53;5097656;27;45539;-48
2022/01/14 03:16:53;;;;;;;;;42.00;37.50;;;;;5.31;67.71;102855.03;5097937;27;45437;-46
2022/01/14 03:19:22;;;;;;;;;38.75;34.25;;;;;5.27;67.88;102856.72;5088037;27;45533;-46
2022/01/14 03:21:51;;;;;;;;;35.75;33.50;;;;;5.28;67.99;102854.97;5077170;27;45503;-47
2022/01/14 03:26:47;;;;;;;;;38.25;34.50;;;;;5.24;68.04;102847.94;5097494;27;45461;-50
2022/01/14 03:29:13;;;;;;;;;42.00;37.25;;;;;5.24;68.08;102850.56;5097477;27;45404;-46
2022/01/14 03:31:39;;;;;;;;;41.25;36.25;;;;;5.25;68.10;102849.69;5097549;27;46040;-48
2022/01/14 03:34:04;;;;;;;;;36.25;33.50;;;;;5.21;68.04;102847.84;5096690;27;45486;-49
2022/01/14 03:36:29;;;;;;;;;37.75;35.25;;;;;5.24;68.04;102851.44;5097331;27;45461;-48
2022/01/14 03:38:55;;;;;;;;;45.25;38.25;;;;;5.13;68.30;102842.50;5078917;27;45659;-48
2022/01/14 03:41:20;;;;;;;;;43.00;40.25;;;;;5.23;68.27;102857.47;5076767;28;45386;-47
2022/01/14 03:43:46;;;;;;;;;37.50;35.25;;;;;5.26;68.57;102847.09;5083590;27;45471;-49
2022/01/14 03:46:11;;;;;;;;;38.25;34.00;;;;;5.27;68.50;102853.22;5097139;27;45436;-46
2022/01/14 03:48:37;;;;;;;;;40.25;38.00;;;;;5.23;68.11;102857.47;5097358;27;45378;-48
2022/01/14 03:51:02;;;;;;;;;43.25;33.25;;;;;5.19;68.45;102847.84;5097233;27;45425;-48
2022/01/14 03:53:28;;;;;;;;;40.75;39.00;;;;;5.17;68.37;102848.66;5096058;27;45339;-48
2022/01/14 03:55:54;;;;;;;;;41.75;39.00;;;;;5.22;68.07;102836.59;5097262;27;45454;-47
2022/01/14 03:58:19;;;;;;;;;36.75;33.25;;;;;5.18;68.20;102837.34;5091339;27;45615;-49
2022/01/14 04:00:44;;;;;;;;;31.50;30.75;;;;;5.23;68.29;102841.81;5076066;28;56601;-47
2022/01/14 04:03:10;;;;;;;;;38.25;35.00;;;;;5.19;68.29;102834.78;5074584;28;45407;-47
2022/01/14 04:05:35;;;;;;;;;52.75;42.25;;;;;5.21;68.50;102834.81;5076242;27;45531;-50
2022/01/14 04:08:01;;;;;;;;;38.50;35.50;;;;;5.18;68.26;102834.75;5076088;27;45699;-49
2022/01/14 04:10:27;;;;;;;;;40.50;34.50;;;;;5.20;68.13;102833.94;5076438;27;46029;-49
2022/01/14 04:13:03;;;;;;;;;34.00;31.25;;;;;5.19;68.46;102832.19;5079883;27;45500;-47
2022/01/14 04:15:37;;;;;;;;;42.00;37.75;;;;;5.23;68.11;102833.13;5096960;27;45486;-48
2022/01/14 04:18:05;;;;;;;;;42.00;37.25;;;;;5.23;68.01;102836.59;5095795;27;45537;-47
2022/01/14 04:20:30;;;;;;;;;42.50;37.00;;;;;5.18;68.17;102840.84;5095021;27;47292;-49
2022/01/14 04:22:56;;;;;;;;;36.50;35.25;;;;;5.22;67.92;102847.03;5094056;27;45355;-48
2022/01/14 04:25:22;;;;;;;;;43.00;39.50;;;;;5.19;68.43;102839.13;5076515;28;45463;-47
2022/01/14 04:27:48;;;;;;;;;38.25;36.25;;;;;5.17;68.59;102833.88;5085555;27;45362;-51
2022/01/14 04:30:14;;;;;;;;;43.75;37.00;;;;;5.17;68.08;102828.66;5096480;27;45568;-48
2022/01/14 04:32:40;;;;;;;;;51.25;41.25;;;;;5.16;68.65;102826.91;5096483;27;45377;-49
2022/01/14 04:35:06;;;;;;;;;37.25;34.75;;;;;5.19;67.95;102824.34;5096502;27;45366;-48
2022/01/14 04:37:31;;;;;;;;;38.00;35.50;;;;;5.20;68.46;102825.22;5096543;27;45513;-51
2022/01/14 04:39:56;;;;;;;;;40.50;38.25;;;;;5.21;68.13;102822.69;5096035;27;45379;-50
2022/01/14 04:42:23;;;;;;;;;42.75;40.25;;;;;5.24;68.18;102819.25;5088152;27;45398;-48
2022/01/14 04:44:53;;;;;;;;;41.50;38.00;;;;;5.16;68.49;102805.13;5076239;27;45379;-50
2022/01/14 04:47:30;;;;;;;;;37.50;37.00;;;;;5.22;68.02;102819.22;5075981;27;45403;-50
2022/01/14 04:49:56;;;;;;;;;40.75;38.25;;;;;5.18;68.48;102806.06;5077965;27;45484;-49
2022/01/14 04:52:22;;;;;;;;;38.75;34.00;;;;;5.18;68.43;102806.06;5095976;27;45409;-48
2022/01/14 04:54:47;;;;;;;;;40.25;37.00;;;;;5.13;68.21;102786.81;5096294;27;45449;-48
2022/01/14 04:57:16;;;;;;;;;43.75;41.00;;;;;5.20;68.00;102796.53;5096288;27;45535;-49
2022/01/14 04:59:43;;;;;;;;;41.00;36.00;;;;;5.22;67.90;102805.28;5096082;27;46074;-49
2022/01/14 05:02:08;;;;;;;;;47.50;42.00;;;;;5.22;68.06;102798.34;5096327;27;45428;-48
2022/01/14 05:04:34;;;;;;;;;44.50;38.25;;;;;5.22;67.89;102808.78;5093676;27;45505;-47
2022/01/14 05:07:02;;;;;;;;;39.50;37.75;;;;;5.23;67.76;102809.66;5095991;27;45440;-48
2022/01/14 05:09:35;;;;;;;;;46.75;40.50;;;;;5.20;67.51;102807.84;5095939;27;45576;-50
2022/01/14 05:12:07;;;;;;;;;39.25;39.25;;;;;5.17;67.61;102814.72;5095986;27;45759;-46
2022/01/14 05:14:33;;;;;;;;;42.00;38.00;;;;;5.17;67.76;102801.69;5095847;27;45520;-45
2022/01/14 05:16:58;;;;;;;;;42.50;39.50;;;;;5.17;67.97;102807.78;5096761;27;45356;-48
2022/01/14 05:19:23;;;;;;;;;51.50;44.50;;;;;5.18;67.70;102811.25;5099680;27;45374;-47
2022/01/14 05:21:49;;;;;;;;;37.50;35.25;;;;;5.15;67.36;102812.06;5099431;27;45447;-49
2022/01/14 05:24:14;;;;;;;;;38.00;36.75;;;;;5.15;67.46;102804.25;5099387;27;45352;-48
2022/01/14 05:26:39;;;;;;;;;40.25;34.00;;;;;5.13;67.53;102808.56;5099153;27;45342;-49
2022/01/14 05:29:05;;;;;;;;;44.75;38.75;;;;;5.12;67.92;102798.97;5098521;27;61310;-46
2022/01/14 05:31:52;;;;;;;;;38.75;34.25;;;;;5.12;67.79;102803.31;5098850;27;45344;-46
2022/01/14 05:34:17;;;;;;;;;42.00;39.25;;;;;5.14;67.82;102801.63;5099429;27;45477;-48
2022/01/14 05:36:43;;;;;;;;;48.00;41.75;;;;;5.05;67.55;102797.97;5098959;27;45420;-46
2022/01/14 05:39:10;;;;;;;;;43.75;41.50;;;;;5.08;67.81;102811.06;5099039;27;46104;-48
2022/01/14 05:41:35;;;;;;;;;53.50;41.50;;;;;5.11;67.64;102822.44;5099338;27;45407;-49
2022/01/14 05:44:02;;;;;;;;;47.50;40.50;;;;;5.06;67.71;102822.31;5096945;27;45507;-47
2022/01/14 05:46:28;;;;;;;;;43.00;39.00;;;;;4.90;67.88;102800.22;5078731;27;45411;-49
2022/01/14 05:48:53;;;;;;;;;42.25;41.25;;;;;5.03;68.25;102830.94;5078417;27;45866;-47
2022/01/14 05:51:19;;;;;;;;;40.25;39.00;;;;;5.03;68.01;102825.72;5078594;27;45423;-47
2022/01/14 05:53:44;;;;;;;;;42.00;39.50;;;;;5.01;67.93;102832.63;5078467;27;45329;-47
2022/01/14 05:56:09;;;;;;;;;44.75;40.75;;;;;5.01;67.93;102835.25;5078683;27;45545;-46
2022/01/14 05:58:35;;;;;;;;;46.00;40.75;;;;;5.02;67.68;102833.50;5078596;27;46082;-46
2022/01/14 06:01:00;;;;;;;;;48.50;42.25;;;;;4.99;67.70;102823.00;5097464;27;51289;-46
2022/01/14 06:03:25;;;;;;;;;44.75;41.00;;;;;5.05;67.85;102824.03;5079026;27;45533;-48
2022/01/14 06:05:51;;;;;;;;;47.00;42.00;;;;;5.07;67.68;102829.28;5077099;28;45642;-47
2022/01/14 06:08:16;;;;;;;;;43.25;39.25;;;;;5.05;67.75;102823.13;5078197;27;46279;-46
2022/01/14 06:10:41;;;;;;;;;39.00;37.75;;;;;5.03;67.99;102823.13;5078003;27;45510;-49
2022/01/14 06:13:07;;;;;;;;;40.50;38.00;;;;;5.05;67.91;102815.31;5078449;27;45475;-46
2022/01/14 06:15:32;;;;;;;;;45.75;41.50;;;;;5.02;67.68;102813.53;5078281;27;45609;-47
2022/01/14 06:17:58;;;;;;;;;45.50;39.50;;;;;5.02;67.89;102817.84;5078225;28;46081;-46
2022/01/14 06:20:23;;;;;;;;;48.00;40.25;;;;;5.04;68.10;102817.03;5088399;27;45440;-48
2022/01/14 06:22:49;;;;;;;;;46.25;41.25;;;;;5.08;67.69;102816.28;5098832;27;45489;-48
2022/01/14 06:25:14;;;;;;;;;50.50;44.00;;;;;5.04;67.56;102811.84;5098725;27;45453;-50
2022/01/14 06:27:40;;;;;;;;;46.75;41.25;;;;;5.08;67.97;102813.69;5098088;27;46254;-47
2022/01/14 06:30:06;;;;;;;;;48.50;41.75;;;;;5.09;67.52;102809.34;5097781;27;48408;-49
2022/01/14 06:32:32;;;;;;;;;39.75;37.25;;;;;5.06;67.28;102820.56;5079461;27;45377;-51
2022/01/14 06:34:57;;;;;;;;;37.75;30.50;;;;;5.01;67.52;102816.09;5077954;27;45374;-48
2022/01/14 06:37:22;;;;;;;;;50.25;41.25;;;;;4.94;67.76;102809.84;5083416;27;48371;-47
2022/01/14 06:39:48;;;;;;;;;47.00;39.00;;;;;4.96;68.14;102821.19;5085430;27;45540;-49
2022/01/14 06:42:13;;;;;;;;;48.75;42.25;;;;;4.91;68.07;102814.13;5093099;27;45501;-48
2022/01/14 06:44:39;;;;;;;;;45.50;41.75;;;;;4.94;68.09;102822.88;5098351;27;45386;-48
2022/01/14 06:47:04;;;;;;;;;50.50;42.25;;;;;4.92;67.82;102818.50;5098018;27;45422;-46
2022/01/14 06:49:30;;;;;;;;;45.75;40.25;;;;;4.91;67.88;102825.44;5098252;27;45419;-48
2022/01/14 06:51:55;;;;;;;;;46.25;41.75;;;;;4.91;68.01;102815.00;5098381;27;45380;-49
2022/01/14 06:54:20;;;;;;;;;45.50;41.00;;;;;4.92;67.90;102808.09;5097679;27;45347;-48
2022/01/14 06:56:46;;;;;;;;;52.50;43.75;;;;;4.92;67.79;102818.50;5096317;27;47962;-47
2022/01/14 06:59:11;;;;;;;;;52.50;45.75;;;;;4.91;68.09;102812.38;5097864;27;51276;-47
2022/01/14 07:01:37;;;;;;;;;56.75;43.50;;;;;4.93;67.85;102815.91;5098024;27;45449;-47
2022/01/14 07:04:03;;;;;;;;;51.75;45.25;;;;;4.92;68.29;102808.97;5097390;27;45397;-51
2022/01/14 07:06:29;;;;;;;;;47.50;43.25;;;;;4.91;67.81;102808.91;5096644;27;47887;-47
2022/01/14 07:08:54;;;;;;;;;49.75;43.00;;;;;4.91;67.63;102808.91;5097889;27;45442;-47
2022/01/14 07:11:19;;;;;;;;;56.75;46.25;;;;;4.90;68.27;102802.81;5098153;27;45390;-49
2022/01/14 07:13:45;;;;;;;;;36.75;31.25;;;;;4.89;67.69;102801.06;5097959;27;45648;-47
2022/01/14 07:16:10;;;;;;;;;54.25;44.00;;;;;4.92;67.98;102801.13;5097232;27;45829;-51
2022/01/14 07:18:35;;;;;;;;;47.25;42.75;;;;;4.93;67.77;102802.00;5097605;27;49496;-47
2022/01/14 07:21:01;;;;;;;;;53.00;43.75;;;;;4.86;68.21;102799.28;5092655;27;45995;-53
2022/01/14 07:23:26;;;;;;;;;50.00;41.50;;;;;4.87;68.04;102797.53;5077044;27;45517;-48
2022/01/14 07:25:51;;;;;;;;;46.50;43.00;;;;;4.83;68.00;102793.94;5076493;27;46301;-51
2022/01/14 07:28:17;;;;;;;;;52.00;46.00;;;;;4.82;68.25;102799.16;5090381;27;45403;-49
2022/01/14 07:30:42;;;;;;;;;52.25;45.50;;;;;4.80;67.84;102795.63;5095664;27;45673;-47
2022/01/14 07:33:08;;;;;;;;;55.75;47.00;;;;;4.76;68.49;102794.66;5083169;27;45369;-48
2022/01/14 07:35:33;;;;;;;;;52.25;43.25;;;;;4.79;68.42;102804.28;5084836;27;45441;-46
2022/01/14 07:37:59;;;;;;;;;57.50;47.75;;;;;4.79;68.53;102802.56;5087985;27;45383;-51
2022/01/14 07:40:24;;;;;;;;;42.50;38.00;;;;;4.78;68.28;102795.59;5076329;27;45529;-47
2022/01/14 07:42:49;;;;;;;;;55.25;43.00;;;;;4.78;68.61;102793.00;5077187;27;45334;-47
2022/01/14 07:45:15;;;;;;;;;57.50;44.00;;;;;4.77;68.19;102793.81;5076855;27;45836;-45
2022/01/14 07:47:41;;;;;;;;;55.50;44.25;;;;;4.78;68.47;102800.81;5058390;28;45573;-47
2022/01/14 07:50:07;;;;;;;;;50.50;42.00;;;;;4.79;68.21;102806.91;5076750;28;45387;-48
2022/01/14 07:52:32;;;;;;;;;48.00;42.25;;;;;4.81;68.30;102805.22;5076717;27;45443;-47
2022/01/14 07:54:57;;;;;;;;;51.00;42.25;;;;;4.80;68.37;102814.75;5076302;27;46321;-48
2022/01/14 07:57:23;;;;;;;;;50.00;44.00;;;;;4.85;68.24;102814.84;5076409;27;45505;-49
2022/01/14 07:59:49;;;;;;;;;48.25;44.75;;;;;4.85;68.28;102815.72;5076502;27;45405;-49
2022/01/14 08:02:15;;;;;;;;;52.50;45.50;;;;;4.86;68.30;102819.22;5076598;27;45583;-46
2022/01/14 08:04:41;;;;;;;;;53.00;43.25;;;;;4.84;68.25;102816.59;5076282;28;46099;-47
2022/01/14 08:07:11;;;;;;;;;52.75;42.00;;;;;4.91;68.24;102821.94;5076847;28;45370;-47
2022/01/14 08:09:42;;;;;;;;;52.50;45.75;;;;;4.92;67.95;102821.13;5076519;27;45476;-45
2022/01/14 08:12:10;;;;;;;;;48.50;43.50;;;;;4.93;68.00;102818.53;5076826;27;45436;-46
2022/01/14 08:14:36;;;;;;;;;51.75;43.00;;;;;4.90;67.85;102808.03;5076271;27;45401;-47
2022/01/14 08:17:01;;;;;;;;;53.00;43.75;;;;;4.97;67.89;102809.94;5076259;27;45454;-46
2022/01/14 08:19:32;;;;;;;;;51.00;42.75;;;;;5.00;67.69;102816.97;5076561;27;45500;-48
2022/01/14 08:21:58;;;;;;;;;54.50;43.25;;;;;5.00;67.41;102810.00;5075806;27;45419;-49
2022/01/14 08:24:23;;;;;;;;;49.25;42.25;;;;;5.02;67.53;102816.16;5076241;28;45665;-49
2022/01/14 08:26:48;;;;;;;;;52.00;43.50;;;;;5.03;67.36;102830.94;5076383;27;45440;-47
2022/01/14 08:29:14;;;;;;;;;37.25;35.50;;;;;5.00;66.97;102836.09;5076606;27;45435;-47
2022/01/14 08:31:39;;;;;;;;;44.75;42.25;;;;;4.97;67.55;102829.91;5075014;27;45562;-48
2022/01/14 08:34:05;;;;;;;;;48.00;41.00;;;;;4.94;66.62;102833.31;5075956;27;46004;-47
2022/01/14 08:36:30;;;;;;;;;45.75;41.00;;;;;4.93;67.53;102828.09;5076137;27;45383;-47
2022/01/14 08:38:56;;;;;;;;;53.75;42.50;;;;;4.94;67.76;102829.84;5076307;27;45443;-48
2022/01/14 08:41:23;;;;;;;;;52.50;44.25;;;;;4.95;67.26;102829.88;5075826;27;45632;-48
2022/01/14 08:43:48;;;;;;;;;54.50;43.25;;;;;4.97;67.26;102825.59;5075882;27;45490;-51
2022/01/14 08:46:14;;;;;;;;;51.50;44.25;;;;;5.01;67.09;102824.81;5074811;27;45420;-47
2022/01/14 08:48:39;;;;;;;;;55.50;43.50;;;;;5.03;67.33;102828.34;5076040;27;45364;-47
2022/01/14 08:51:05;;;;;;;;;50.50;44.75;;;;;5.05;66.97;102833.56;5075848;27;45426;-49
2022/01/14 08:53:30;;;;;;;;;52.00;43.25;;;;;5.07;66.98;102830.16;5075877;27;46982;-45
2022/01/14 08:55:56;;;;;;;;;46.50;42.50;;;;;5.10;67.05;102837.16;5075374;27;45562;-47
2022/01/14 08:58:21;;;;;;;;;44.75;39.25;;;;;5.07;67.39;102824.06;5076206;27;45442;-45
2022/01/14 09:00:49;;;;;;;;;53.00;45.50;;;;;5.14;67.15;102827.72;5075885;27;45331;-48
2022/01/14 09:03:14;;;;;;;;;52.00;43.50;;;;;5.13;66.88;102821.63;5075802;27;45417;-47
2022/01/14 09:05:39;;;;;;;;;55.75;46.25;;;;;5.17;66.72;102812.13;5075107;27;45345;-47
2022/01/14 09:08:05;;;;;;;;;56.25;46.00;;;;;5.18;66.71;102822.56;5074513;28;45403;-47
2022/01/14 09:10:30;;;;;;;;;51.00;46.00;;;;;5.21;66.72;102824.38;5074548;28;45510;-46
2022/01/14 09:12:56;;;;;;;;;55.50;47.00;;;;;5.24;66.71;102822.75;5075748;27;46013;-48
2022/01/14 09:15:21;;;;;;;;;60.00;46.75;;;;;5.27;66.40;102827.16;5075539;28;45501;-47
2022/01/14 09:17:47;;;;;;;;;50.00;44.75;;;;;5.30;66.07;102829.81;5075520;27;45438;-47
2022/01/14 09:20:13;;;;;;;;;47.50;42.50;;;;;5.32;66.11;102826.41;5075681;27;45657;-47
2022/01/14 09:22:41;;;;;;;;;53.75;45.50;;;;;5.34;65.96;102825.53;5075685;27;45659;-46
2022/01/14 09:25:07;;;;;;;;;57.50;46.50;;;;;5.37;65.99;102818.66;5075561;27;45448;-50
2022/01/14 09:27:33;;;;;;;;;58.50;46.75;;;;;5.41;66.08;102814.41;5075152;27;45532;-47
2022/01/14 09:30:00;;;;;;;;;64.75;48.25;;;;;5.40;65.54;102808.31;5075452;27;45447;-47
2022/01/14 09:32:26;;;;;;;;;57.75;46.25;;;;;5.44;65.59;102810.13;5075501;27;46224;-46
2022/01/14 09:34:52;;;;;;;;;61.75;49.50;;;;;5.49;65.45;102811.09;5075139;27;45448;-48
2022/01/14 09:37:17;;;;;;;;;57.75;48.00;;;;;5.50;64.68;102804.16;5075425;27;45438;-47
2022/01/14 09:39:43;;;;;;;;;46.25;42.00;;;;;5.48;64.92;102809.34;5075022;27;45391;-46
2022/01/14 09:42:18;;;;;;;;;56.50;44.25;;;;;5.51;64.91;102805.94;5074996;27;47157;-48
2022/01/14 09:44:44;;;;;;;;;57.75;45.25;;;;;5.56;64.88;102812.09;5075259;27;45443;-50
2022/01/14 09:47:09;;;;;;;;;51.50;46.00;;;;;5.59;64.53;102809.56;5075353;27;45435;-49
2022/01/14 09:49:36;;;;;;;;;56.50;46.25;;;;;5.57;64.47;102802.56;5074922;27;45643;-48
2022/01/14 09:52:02;;;;;;;;;51.75;42.25;;;;;5.60;64.48;102815.66;5074921;27;46190;-48
2022/01/14 09:54:27;;;;;;;;;47.00;43.00;;;;;5.64;64.16;102821.00;5075279;27;45396;-48
2022/01/14 09:56:53;;;;;;;;;56.00;47.00;;;;;5.65;64.15;102821.88;5075060;27;45305;-47
2022/01/14 09:59:19;;;;;;;;;51.25;43.25;;;;;5.69;64.10;102818.47;5075222;27;45329;-48
2022/01/14 10:01:47;;;;;;;;;54.50;45.25;;;;;5.73;64.26;102822.91;5075297;27;45448;-48
2022/01/14 10:04:15;;;;;;;;;54.75;48.50;;;;;5.75;63.81;102834.28;5078199;27;45512;-49
2022/01/14 10:06:42;;;;;;;;;54.00;43.50;;;;;5.79;64.17;102835.22;5078776;27;45417;-47
2022/01/14 10:09:21;;;;;;;;;58.75;47.25;;;;;5.79;63.56;102833.47;5078691;27;45522;-46
2022/01/14 10:12:08;;;;;;;;;60.00;49.00;;;;;5.76;63.04;102836.91;5078159;27;46037;-48
2022/01/14 10:14:39;;;;;;;;;61.00;47.25;;;;;5.74;63.15;102832.50;5078249;27;45476;-47
2022/01/14 10:17:10;;;;;;;;;53.00;44.75;;;;;5.78;63.33;102841.25;5077465;28;45412;-48
2022/01/14 10:19:40;;;;;;;;;59.25;49.50;;;;;5.75;63.45;102836.88;5078336;27;45357;-48
2022/01/14 10:22:27;;;;;;;;;55.75;46.00;;;;;5.81;63.80;102828.28;5077601;27;46299;-49
2022/01/14 10:24:59;;;;;;;;;59.25;50.00;;;;;5.83;63.38;102837.91;5077985;27;45531;-46
2022/01/14 10:27:40;;;;;;;;;62.25;51.50;;;;;5.86;63.47;102837.09;5078027;27;45583;-46
2022/01/14 10:30:31;;;;;;;;;58.00;48.50;;;;;5.88;63.70;102835.38;5078223;27;45425;-47
2022/01/14 10:33:04;;;;;;;;;64.50;51.50;;;;;5.91;63.55;102828.50;5077404;27;45477;-46
2022/01/14 10:35:35;;;;;;;;;64.25;52.50;;;;;5.93;63.35;102826.81;5077733;27;45372;-48
2022/01/14 10:38:05;;;;;;;;;64.00;52.75;;;;;5.93;63.30;102829.44;5077891;27;45461;-47
2022/01/14 10:40:35;;;;;;;;;62.25;52.00;;;;;5.98;63.55;102824.31;5077855;28;45403;-48
2022/01/14 10:43:12;;;;;;;;;65.25;52.00;;;;;6.02;63.15;102823.53;5077963;27;45459;-48
2022/01/14 10:45:39;;;;;;;;;61.75;50.25;;;;;6.04;62.48;102819.19;5077581;27;45494;-48
2022/01/14 10:48:10;;;;;;;;;63.50;53.25;;;;;6.04;62.81;102819.19;5077888;27;45367;-46
2022/01/14 10:50:38;;;;;;;;;64.25;52.50;;;;;6.06;62.91;102817.50;5077981;27;45401;-46
2022/01/14 10:53:13;;;;;;;;;69.50;55.50;;;;;6.06;62.82;102809.66;5077540;27;46172;-47
2022/01/14 10:55:41;;;;;;;;;67.50;51.75;;;;;6.06;62.39;102808.78;5077320;27;45553;-49
2022/01/14 10:58:14;;;;;;;;;67.00;54.50;;;;;6.02;62.70;102797.41;5077664;27;45507;-48
2022/01/14 11:00:43;;;;;;;;;63.25;52.00;;;;;6.04;62.81;102800.91;5077727;27;45381;-49
2022/01/14 11:03:08;;;;;;;;;74.00;60.75;;;;;6.05;62.62;102794.84;5077226;27;45404;-47
2022/01/14 11:05:35;;;;;;;;;68.00;56.00;;;;;6.10;62.33;102797.53;5077295;27;45546;-48
2022/01/14 11:08:01;;;;;;;;;68.75;57.25;;;;;6.16;62.18;102790.69;5077238;27;45696;-47
2022/01/14 11:10:29;;;;;;;;;68.75;56.00;;;;;6.20;62.08;102800.31;5075927;28;45408;-50
2022/01/14 11:12:57;;;;;;;;;71.50;56.00;;;;;6.22;62.31;102799.50;5077022;27;45542;-47
2022/01/14 11:15:24;;;;;;;;;64.50;52.25;;;;;6.24;61.64;102798.69;5076731;28;45476;-45
2022/01/14 11:17:53;;;;;;;;;63.75;52.75;;;;;6.08;61.91;102760.06;5076989;28;45436;-48
2022/01/14 11:20:36;;;;;;;;;65.50;53.50;;;;;6.22;61.54;102787.31;5077134;27;45357;-47
2022/01/14 11:23:14;;;;;;;;;70.25;57.00;;;;;6.29;61.72;102783.97;5075793;27;46289;-51
2022/01/14 11:25:46;;;;;;;;;65.25;54.25;;;;;6.31;61.57;102784.84;5077124;28;45469;-49
2022/01/14 11:28:16;;;;;;;;;70.75;57.75;;;;;6.34;61.51;102777.09;5076877;27;45415;-47
2022/01/14 11:30:41;;;;;;;;;68.50;54.25;;;;;6.35;61.48;102773.59;5077228;27;45397;-47
2022/01/14 11:33:08;;;;;;;;;68.50;53.75;;;;;6.38;61.33;102780.63;5076817;28;46248;-47
2022/01/14 11:35:37;;;;;;;;;67.00;53.75;;;;;6.40;61.49;102773.69;5077081;28;45469;-47
2022/01/14 11:38:23;;;;;;;;;89.00;69.00;;;;;6.40;60.77;102764.09;5077245;27;45351;-50